createdAt,value
2023-02-06T00:01:59.220Z,97970.28
2023-02-06T00:05:00.796Z,97976.47
2023-02-06T00:08:02.691Z,97982.75
2023-02-06T00:11:07.387Z,97973.22
2023-02-06T00:14:09.056Z,97970.63
2023-02-06T00:17:10.596Z,97973.31
2023-02-06T00:20:13.202Z,97970.69
2023-02-06T00:23:14.956Z,97974.19
2023-02-06T00:26:16.732Z,97982.13
2023-02-06T00:29:18.871Z,97979.75
2023-02-06T00:32:21.596Z,97981.47
2023-02-06T00:35:23.186Z,97974.53
2023-02-06T00:38:24.773Z,97971.00
2023-02-06T00:41:26.321Z,97985.94
2023-02-06T00:44:28.947Z,97982.63
2023-02-06T00:47:30.512Z,97987.09
2023-02-06T00:50:32.070Z,97994.31
2023-02-06T00:53:33.822Z,97991.88
2023-02-06T00:56:35.609Z,97991.13
2023-02-06T00:59:37.144Z,97986.91
2023-02-06T01:02:38.758Z,97981.56
2023-02-06T01:05:40.352Z,97981.63
2023-02-06T01:08:41.962Z,97994.78
2023-02-06T01:11:43.547Z,97990.59
2023-02-06T01:14:45.162Z,97993.41
2023-02-06T01:17:46.638Z,98002.28
2023-02-06T01:20:48.209Z,98003.25
2023-02-06T01:23:51.352Z,98015.59
2023-02-06T01:26:52.935Z,98013.06
2023-02-06T01:29:54.608Z,98015.03
2023-02-06T01:32:56.213Z,98016.16
2023-02-06T01:35:57.790Z,98019.84
2023-02-06T01:38:59.364Z,98026.00
2023-02-06T01:42:00.966Z,98010.28
2023-02-06T01:45:25.080Z,98005.94
2023-02-06T01:48:51.639Z,97998.09
2023-02-06T01:52:06.506Z,97997.31
2023-02-06T01:55:08.288Z,97993.91
2023-02-06T01:58:11.956Z,97987.06
2023-02-06T02:01:13.608Z,97981.00
2023-02-06T02:04:19.092Z,97979.31
2023-02-06T02:07:27.230Z,97975.91
2023-02-06T02:10:30.747Z,97977.81
2023-02-06T02:13:34.307Z,97980.41
2023-02-06T02:17:14.766Z,97966.31
2023-02-06T02:20:28.522Z,97975.06
2023-02-06T02:23:37.723Z,97981.22
2023-02-06T02:27:14.668Z,97975.06
2023-02-06T02:30:53.828Z,97979.41
2023-02-06T02:34:08.088Z,97983.84
2023-02-06T02:37:28.696Z,97995.28
2023-02-06T02:40:39.465Z,97983.16
2023-02-06T02:43:58.089Z,97981.66
2023-02-06T02:47:03.690Z,97983.25
2023-02-06T02:50:06.082Z,97990.28
2023-02-06T02:53:08.356Z,97985.97
2023-02-06T02:56:30.243Z,97989.47
2023-02-06T02:59:36.663Z,97990.34
2023-02-06T03:02:40.896Z,97986.84
2023-02-06T03:06:10.180Z,97991.25
2023-02-06T03:09:15.746Z,97995.75
2023-02-06T03:12:43.473Z,97995.91
2023-02-06T03:15:54.805Z,98016.25
2023-02-06T03:19:37.650Z,98032.06
2023-02-06T03:22:41.988Z,98039.06
2023-02-06T03:25:47.587Z,98034.75
2023-02-06T03:28:52.753Z,98036.63
2023-02-06T03:32:01.789Z,98038.50
2023-02-06T03:35:10.397Z,98024.59
2023-02-06T03:38:12.772Z,98036.84
2023-02-06T03:41:16.336Z,98024.56
2023-02-06T03:44:24.700Z,98030.63
2023-02-06T03:47:27.649Z,98031.47
2023-02-06T03:50:31.605Z,98027.91
2023-02-06T03:53:36.499Z,98018.34
2023-02-06T03:56:58.325Z,98013.00
2023-02-06T03:59:59.920Z,98020.03
2023-02-06T04:03:02.362Z,98016.63
2023-02-06T04:06:04.064Z,98014.03
2023-02-06T04:09:05.704Z,98013.22
2023-02-06T04:12:08.263Z,98011.50
2023-02-06T04:15:10.743Z,98005.50
2023-02-06T04:18:12.293Z,98010.81
2023-02-06T04:21:13.906Z,98010.03
2023-02-06T04:24:15.468Z,98004.91
2023-02-06T04:27:17.100Z,98002.44
2023-02-06T04:30:19.190Z,98004.31
2023-02-06T04:33:21.026Z,98014.97
2023-02-06T04:36:22.596Z,98001.97
2023-02-06T04:39:24.586Z,97985.59
2023-02-06T04:42:26.207Z,97979.44
2023-02-06T04:45:27.915Z,97978.69
2023-02-06T04:48:29.508Z,97987.66
2023-02-06T04:51:31.064Z,97982.53
2023-02-06T04:54:32.851Z,97983.59
2023-02-06T04:57:34.513Z,97983.75
2023-02-06T05:00:37.975Z,97988.25
2023-02-06T05:03:40.291Z,97976.16
2023-02-06T05:06:41.857Z,97982.34
2023-02-06T05:09:43.403Z,97987.06
2023-02-06T05:12:47.028Z,97992.38
2023-02-06T05:15:48.857Z,97977.69
2023-02-06T05:18:55.598Z,97973.50
2023-02-06T05:21:57.152Z,97977.03
2023-02-06T05:24:58.726Z,97978.91
2023-02-06T05:28:00.328Z,97981.59
2023-02-06T05:31:02.961Z,97972.06
2023-02-06T05:34:04.588Z,97966.03
2023-02-06T05:37:06.149Z,97966.19
2023-02-06T05:40:09.027Z,97981.19
2023-02-06T05:43:10.802Z,97977.00
2023-02-06T05:46:13.119Z,97978.78
2023-02-06T05:49:15.244Z,97973.59
2023-02-06T05:52:16.938Z,97977.13
2023-02-06T05:55:18.665Z,97975.41
2023-02-06T05:58:21.135Z,97971.13
2023-02-06T06:01:22.735Z,97971.19
2023-02-06T06:04:24.948Z,97969.50
2023-02-06T06:07:26.549Z,97973.19
2023-02-06T06:10:28.341Z,97972.22
2023-02-06T06:13:30.408Z,97976.66
2023-02-06T06:16:32.504Z,97969.84
2023-02-06T06:19:34.104Z,97982.13
2023-02-06T06:22:35.644Z,97991.78
2023-02-06T06:25:37.595Z,97998.88
2023-02-06T06:28:39.401Z,98004.28
2023-02-06T06:31:41.111Z,98000.81
2023-02-06T06:34:42.922Z,97997.41
2023-02-06T06:37:44.799Z,97999.31
2023-02-06T06:40:46.360Z,98010.66
2023-02-06T06:43:49.553Z,98003.78
2023-02-06T06:46:52.519Z,98005.63
2023-02-06T06:49:54.175Z,98008.28
2023-02-06T06:52:55.773Z,98004.97
2023-02-06T06:56:04.003Z,97995.38
2023-02-06T06:59:05.718Z,97991.88
2023-02-06T07:02:07.642Z,97987.50
2023-02-06T07:05:09.293Z,97987.59
2023-02-06T07:08:10.858Z,97991.22
2023-02-06T07:11:18.516Z,97987.88
2023-02-06T07:14:20.353Z,97988.88
2023-02-06T07:17:21.913Z,97997.59
2023-02-06T07:20:23.723Z,97996.78
2023-02-06T07:23:25.580Z,97992.44
2023-02-06T07:26:27.181Z,97993.47
2023-02-06T07:29:28.813Z,98000.47
2023-02-06T07:32:30.393Z,98007.47
2023-02-06T07:35:32.110Z,98012.81
2023-02-06T07:38:33.619Z,98030.31
2023-02-06T07:41:35.226Z,98030.34
2023-02-06T07:44:36.792Z,98038.31
2023-02-06T07:47:38.428Z,98034.69
2023-02-06T07:50:40.096Z,98040.84
2023-02-06T07:53:41.631Z,98027.72
2023-02-06T07:56:43.779Z,98032.91
2023-02-06T07:59:45.368Z,98030.25
2023-02-06T08:02:46.945Z,98039.88
2023-02-06T08:05:48.563Z,98054.72
2023-02-06T08:08:50.710Z,98044.16
2023-02-06T08:11:52.298Z,98035.34
2023-02-06T08:14:53.883Z,98048.41
2023-02-06T08:17:55.547Z,98042.19
2023-02-06T08:21:04.312Z,98041.22
2023-02-06T08:24:06.528Z,98028.94
2023-02-06T08:27:08.126Z,98027.13
2023-02-06T08:30:10.348Z,98029.59
2023-02-06T08:33:11.857Z,98025.94
2023-02-06T08:36:14.415Z,98030.22
2023-02-06T08:39:17.380Z,98021.34
2023-02-06T08:42:18.968Z,98015.25
2023-02-06T08:45:20.642Z,98011.66
2023-02-06T08:48:22.273Z,98014.13
2023-02-06T08:51:27.731Z,97996.63
2023-02-06T08:54:29.346Z,97999.09
2023-02-06T08:57:30.846Z,98005.03
2023-02-06T09:00:32.430Z,98006.63
2023-02-06T09:03:34.623Z,98003.88
2023-02-06T09:06:38.783Z,97999.53
2023-02-06T09:09:40.436Z,98000.97
2023-02-06T09:12:42.012Z,98004.34
2023-02-06T09:15:51.344Z,98004.19
2023-02-06T09:18:54.358Z,98009.25
2023-02-06T09:21:56.228Z,97995.28
2023-02-06T09:24:57.864Z,98007.38
2023-02-06T09:27:59.382Z,98004.66
2023-02-06T09:31:01.220Z,98002.84
2023-02-06T09:34:04.209Z,98002.81
2023-02-06T09:37:06.296Z,98001.84
2023-02-06T09:40:11.632Z,98002.63
2023-02-06T09:43:14.004Z,98000.72
2023-02-06T09:46:21.273Z,98007.59
2023-02-06T09:49:35.908Z,97997.91
2023-02-06T09:52:51.568Z,98006.41
2023-02-06T09:56:12.660Z,98015.06
2023-02-06T09:59:26.136Z,98009.63
2023-02-06T10:02:44.508Z,98012.09
2023-02-06T10:06:03.224Z,98005.72
2023-02-06T10:09:10.959Z,98002.13
2023-02-06T10:12:17.980Z,98003.69
2023-02-06T10:15:45.403Z,98006.16
2023-02-06T10:18:54.288Z,97992.09
2023-02-06T10:22:05.620Z,97973.66
2023-02-06T10:25:21.087Z,97972.59
2023-02-06T10:28:29.438Z,97967.09
2023-02-06T10:31:45.541Z,97967.69
2023-02-06T10:35:26.338Z,97967.44
2023-02-06T10:38:30.900Z,97958.34
2023-02-06T10:41:51.641Z,97957.31
2023-02-06T10:45:13.207Z,97947.41
2023-02-06T10:48:31.574Z,97935.00
2023-02-06T10:51:42.597Z,97934.91
2023-02-06T10:54:51.616Z,97933.84
2023-02-06T10:58:04.653Z,97927.66
2023-02-06T11:01:24.766Z,97920.53
2023-02-06T11:04:35.824Z,97916.22
2023-02-06T11:07:47.140Z,97917.06
2023-02-06T11:10:49.908Z,97918.84
2023-02-06T11:13:56.968Z,97913.59
2023-02-06T11:17:00.185Z,97909.16
2023-02-06T11:20:37.355Z,97910.97
2023-02-06T11:23:40.486Z,97910.97
2023-02-06T11:26:46.787Z,97890.75
2023-02-06T11:29:52.052Z,97889.09
2023-02-06T11:33:29.376Z,97892.38
2023-02-06T11:36:34.704Z,97877.44
2023-02-06T11:39:38.840Z,97865.16
2023-02-06T11:42:40.398Z,97879.88
2023-02-06T11:45:42.556Z,97869.53
2023-02-06T11:48:46.867Z,97870.94
2023-02-06T11:51:53.953Z,97870.88
2023-02-06T11:55:01.642Z,97876.06
2023-02-06T11:58:21.419Z,97873.22
2023-02-06T12:01:23.452Z,97877.47
2023-02-06T12:04:35.541Z,97875.63
2023-02-06T12:07:42.558Z,97868.50
2023-02-06T12:10:58.088Z,97852.81
2023-02-06T12:14:05.632Z,97866.09
2023-02-06T12:17:36.155Z,97863.63
2023-02-06T12:20:48.204Z,97856.78
2023-02-06T12:23:58.105Z,97857.47
2023-02-06T12:27:05.691Z,97865.41
2023-02-06T12:30:26.684Z,97875.88
2023-02-06T12:33:36.105Z,97876.66
2023-02-06T12:36:53.169Z,97857.47
2023-02-06T12:39:54.749Z,97834.72
2023-02-06T12:43:01.568Z,97817.97
2023-02-06T12:46:16.420Z,97819.75
2023-02-06T12:49:29.287Z,97824.13
2023-02-06T12:52:31.192Z,97810.19
2023-02-06T12:56:05.687Z,97800.47
2023-02-06T12:59:10.072Z,97791.72
2023-02-06T13:02:50.776Z,97785.75
2023-02-06T13:06:01.691Z,97778.72
2023-02-06T13:09:06.732Z,97778.72
2023-02-06T13:12:16.238Z,97777.09
2023-02-06T13:15:24.903Z,97789.97
2023-02-06T13:18:41.827Z,97788.25
2023-02-06T13:21:52.185Z,97787.47
2023-02-06T13:24:57.460Z,97795.34
2023-02-06T13:28:22.627Z,97790.09
2023-02-06T13:31:27.450Z,97790.16
2023-02-06T13:34:29.240Z,97788.44
2023-02-06T13:37:41.264Z,97802.47
2023-02-06T13:40:43.274Z,97787.75
2023-02-06T13:44:05.194Z,97792.78
2023-02-06T13:47:16.644Z,97787.38
2023-02-06T13:50:33.267Z,97789.97
2023-02-06T13:53:56.637Z,97793.53
2023-02-06T13:57:39.419Z,97798.91
2023-02-06T14:00:46.672Z,97792.78
2023-02-06T14:03:50.557Z,97802.25
2023-02-06T14:07:29.144Z,97797.44
2023-02-06T14:11:18.358Z,97792.22
2023-02-06T14:14:53.687Z,97791.38
2023-02-06T14:18:16.500Z,97792.09
2023-02-06T14:21:35.408Z,97786.91
2023-02-06T14:24:49.915Z,97778.09
2023-02-06T14:28:23.183Z,97786.84
2023-02-06T14:32:06.753Z,97785.25
2023-02-06T14:35:33.016Z,97792.19
2023-02-06T14:38:56.064Z,97790.31
2023-02-06T14:41:58.112Z,97787.84
2023-02-06T14:45:08.639Z,97787.84
2023-02-06T14:48:27.051Z,97788.50
2023-02-06T14:51:34.103Z,97783.97
2023-02-06T14:54:41.660Z,97771.59
2023-02-06T14:57:45.803Z,97774.13
2023-02-06T15:00:47.596Z,97775.28
2023-02-06T15:03:52.702Z,97781.03
2023-02-06T15:07:03.459Z,97778.41
2023-02-06T15:10:10.392Z,97779.34
2023-02-06T15:13:38.576Z,97772.47
2023-02-06T15:16:48.837Z,97771.56
2023-02-06T15:19:50.360Z,97765.56
2023-02-06T15:22:55.349Z,97769.88
2023-02-06T15:26:26.214Z,97776.25
2023-02-06T15:29:28.256Z,97786.06
2023-02-06T15:32:35.338Z,97778.34
2023-02-06T15:35:41.271Z,97779.38
2023-02-06T15:38:44.125Z,97777.72
2023-02-06T15:41:49.506Z,97780.34
2023-02-06T15:44:53.343Z,97778.72
2023-02-06T15:47:56.290Z,97777.91
2023-02-06T15:51:08.806Z,97776.25
2023-02-06T15:54:21.207Z,97773.75
2023-02-06T15:57:40.776Z,97780.03
2023-02-06T16:00:42.510Z,97784.63
2023-02-06T16:03:48.841Z,97785.63
2023-02-06T16:07:12.199Z,97782.19
2023-02-06T16:10:29.067Z,97784.91
2023-02-06T16:13:32.125Z,97780.69
2023-02-06T16:16:33.852Z,97786.13
2023-02-06T16:19:40.608Z,97774.06
2023-02-06T16:22:42.368Z,97778.66
2023-02-06T16:25:45.933Z,97774.31
2023-02-06T16:29:05.134Z,97776.94
2023-02-06T16:32:21.288Z,97775.41
2023-02-06T16:35:24.288Z,97784.09
2023-02-06T16:38:27.114Z,97783.44
2023-02-06T16:41:39.402Z,97783.38
2023-02-06T16:44:45.226Z,97784.28
2023-02-06T16:47:47.364Z,97799.25
2023-02-06T16:50:49.751Z,97803.78
2023-02-06T16:53:52.490Z,97804.72
2023-02-06T16:57:07.293Z,97806.44
2023-02-06T17:00:21.764Z,97814.28
2023-02-06T17:03:23.516Z,97815.28
2023-02-06T17:06:28.967Z,97817.13
2023-02-06T17:09:40.363Z,97818.03
2023-02-06T17:12:46.099Z,97822.44
2023-02-06T17:15:48.079Z,97832.06
2023-02-06T17:18:51.271Z,97827.69
2023-02-06T17:21:53.719Z,97819.84
2023-02-06T17:24:55.792Z,97826.88
2023-02-06T17:27:57.883Z,97834.66
2023-02-06T17:30:59.969Z,97837.22
2023-02-06T17:34:01.556Z,97842.41
2023-02-06T17:37:04.134Z,97836.19
2023-02-06T17:40:06.964Z,97837.91
2023-02-06T17:43:08.688Z,97832.72
2023-02-06T17:46:11.791Z,97837.06
2023-02-06T17:49:14.724Z,97833.53
2023-02-06T17:52:17.208Z,97835.25
2023-02-06T17:55:18.965Z,97844.94
2023-02-06T17:58:21.068Z,97844.03
2023-02-06T18:01:24.127Z,97837.00
2023-02-06T18:04:25.963Z,97815.94
2023-02-06T18:07:27.717Z,97820.38
2023-02-06T18:10:30.237Z,97829.22
2023-02-06T18:13:31.784Z,97819.75
2023-02-06T18:16:34.332Z,97816.94
2023-02-06T18:19:44.100Z,97831.03
2023-02-06T18:22:46.617Z,97832.84
2023-02-06T18:25:48.228Z,97845.09
2023-02-06T18:28:49.930Z,97847.75
2023-02-06T18:31:51.784Z,97849.50
2023-02-06T18:34:53.854Z,97853.94
2023-02-06T18:37:56.538Z,97846.06
2023-02-06T18:41:05.733Z,97852.19
2023-02-06T18:44:09.537Z,97840.81
2023-02-06T18:47:13.382Z,97841.72
2023-02-06T18:50:16.419Z,97841.84
2023-02-06T18:53:18.531Z,97841.00
2023-02-06T18:56:20.141Z,97840.84
2023-02-06T18:59:23.047Z,97827.00
2023-02-06T19:02:24.758Z,97808.63
2023-02-06T19:05:29.009Z,97802.44
2023-02-06T19:08:30.603Z,97803.38
2023-02-06T19:11:32.489Z,97806.91
2023-02-06T19:14:34.776Z,97814.88
2023-02-06T19:17:36.731Z,97824.50
2023-02-06T19:20:41.675Z,97822.78
2023-02-06T19:23:44.828Z,97815.03
2023-02-06T19:26:46.969Z,97821.16
2023-02-06T19:29:49.059Z,97830.84
2023-02-06T19:32:51.972Z,97826.56
2023-02-06T19:35:54.397Z,97830.94
2023-02-06T19:39:01.145Z,97845.91
2023-02-06T19:42:06.594Z,97851.22
2023-02-06T19:45:08.564Z,97848.63
2023-02-06T19:48:14.338Z,97850.34
2023-02-06T19:51:22.231Z,97840.75
2023-02-06T19:54:23.771Z,97826.00
2023-02-06T19:57:26.278Z,97840.88
2023-02-06T20:00:29.310Z,97839.25
2023-02-06T20:03:30.972Z,97845.53
2023-02-06T20:06:35.064Z,97835.13
2023-02-06T20:09:41.731Z,97837.88
2023-02-06T20:12:43.318Z,97832.88
2023-02-06T20:15:45.022Z,97835.59
2023-02-06T20:18:47.119Z,97834.94
2023-02-06T20:21:51.686Z,97825.53
2023-02-06T20:24:53.706Z,97835.25
2023-02-06T20:27:55.992Z,97841.56
2023-02-06T20:30:58.129Z,97845.28
2023-02-06T20:34:00.017Z,97828.25
2023-02-06T20:37:01.634Z,97840.34
2023-02-06T20:40:03.680Z,97856.06
2023-02-06T20:43:05.386Z,97863.19
2023-02-06T20:46:08.216Z,97869.41
2023-02-06T20:49:15.868Z,97861.66
2023-02-06T20:52:19.163Z,97872.25
2023-02-06T20:55:21.143Z,97870.53
2023-02-06T20:58:22.821Z,97863.66
2023-02-06T21:01:27.042Z,97857.56
2023-02-06T21:04:31.747Z,97848.03
2023-02-06T21:07:33.484Z,97860.34
2023-02-06T21:10:36.080Z,97863.91
2023-02-06T21:13:40.398Z,97868.31
2023-02-06T21:16:43.670Z,97886.78
2023-02-06T21:19:45.251Z,97891.25
2023-02-06T21:22:46.838Z,97891.25
2023-02-06T21:25:55.858Z,97883.44
2023-02-06T21:28:59.731Z,97879.94
2023-02-06T21:32:13.304Z,97868.75
2023-02-06T21:35:15.730Z,97861.78
2023-02-06T21:38:17.569Z,97856.78
2023-02-06T21:41:19.235Z,97853.38
2023-02-06T21:44:23.858Z,97843.81
2023-02-06T21:47:25.469Z,97846.53
2023-02-06T21:50:27.017Z,97842.19
2023-02-06T21:53:28.667Z,97835.28
2023-02-06T21:56:30.540Z,97837.13
2023-02-06T21:59:36.375Z,97832.00
2023-02-06T22:02:37.938Z,97845.22
2023-02-06T22:05:39.758Z,97852.22
2023-02-06T22:08:56.487Z,97852.31
2023-02-06T22:11:58.343Z,97851.53
2023-02-06T22:14:59.980Z,97850.78
2023-02-06T22:18:01.653Z,97840.47
2023-02-06T22:21:08.666Z,97830.94
2023-02-06T22:24:11.673Z,97821.50
2023-02-06T22:27:13.218Z,97819.06
2023-02-06T22:30:15.009Z,97810.41
2023-02-06T22:33:16.603Z,97808.69
2023-02-06T22:36:21.490Z,97808.78
2023-02-06T22:39:23.751Z,97828.00
2023-02-06T22:42:25.400Z,97831.59
2023-02-06T22:45:26.971Z,97824.63
2023-02-06T22:48:28.747Z,97827.34
2023-02-06T22:51:30.408Z,97828.28
2023-02-06T22:54:32.087Z,97827.53
2023-02-06T22:57:35.280Z,97828.50
2023-02-06T23:00:36.852Z,97846.91
2023-02-06T23:03:38.477Z,97849.59
2023-02-06T23:06:40.765Z,97853.16
2023-02-06T23:09:42.455Z,97859.31
2023-02-06T23:12:44.030Z,97859.38
2023-02-06T23:15:45.670Z,97861.16
2023-02-06T23:18:47.933Z,97869.91
2023-02-06T23:21:51.201Z,97876.91
2023-02-06T23:24:52.920Z,97881.38
2023-02-06T23:27:54.807Z,97886.66
2023-02-06T23:30:56.473Z,97892.84
2023-02-06T23:33:58.318Z,97903.31
2023-02-06T23:36:59.894Z,97908.63
2023-02-06T23:40:01.434Z,97912.25
2023-02-06T23:43:03.231Z,97920.09
2023-02-06T23:46:06.271Z,97923.59
2023-02-06T23:49:08.857Z,97918.44
2023-02-06T23:52:10.455Z,97920.25
2023-02-06T23:55:12.360Z,97928.16
2023-02-06T23:58:13.960Z,97926.53
